Time;durP1;ratioP1;P1;durP2;ratioP2;P2;SDS_P1;SDS_P2;PMS_P1;PMS_P2;Temp;Humidity;BMP_temperature;BMP_pressure;BME280_temperature;BME280_humidity;BME280_pressure;Samples;Min_cycle;Max_cycle;Signal;HPM_P1;HPM_P2
2022/03/02 00:00:51;;;;;;;11.85;8.20;;;;;;;-2.00;59.98;97493.73;1503748;94;21574;-83
2022/03/02 00:03:47;;;;;;;13.48;10.20;;;;;;;-1.98;60.38;97491.10;1457336;94;21171;-83
2022/03/02 00:06:38;;;;;;;11.63;8.93;;;;;;;-1.99;60.48;97492.00;1489077;96;21664;-83
2022/03/02 00:09:52;;;;;;;;;;;;;;;;;;;;;
2022/03/02 00:12:50;;;;;;;;;;;;;;;;;;;;;
2022/03/02 00:18:48;;;;;;;11.28;8.50;;;;;;;-2.03;60.26;97478.61;1422184;101;21108;-83
2022/03/02 00:21:36;;;;;;;12.63;8.35;;;;;;;-2.06;60.42;97469.85;1382935;103;21576;-83
2022/03/02 00:25:01;;;;;;;;;;;;;;;;;;;;;
2022/03/02 00:27:52;;;;;;;;;;;;;;;;;;;;;
2022/03/02 00:30:26;;;;;;;;;;;;;;;;;;;;;
2022/03/02 00:33:19;;;;;;;12.80;8.68;;;;;;;-2.14;60.05;97460.48;1440960;98;21170;-84
2022/03/02 00:38:40;;;;;;;11.55;8.03;;;;;;;-2.15;60.09;97456.30;1412996;99;21499;-84
2022/03/02 00:41:42;;;;;;;12.98;9.00;;;;;;;-2.18;60.50;97452.19;1493441;94;21076;-82
2022/03/02 00:44:30;;;;;;;13.70;8.45;;;;;;;-2.20;60.63;97453.99;1516243;93;21606;-83
2022/03/02 00:47:20;;;;;;;9.63;7.97;;;;;;;-2.24;60.60;97443.59;1510221;95;21087;-83
2022/03/02 00:49:51;;;;;;;10.80;7.58;;;;;;;-2.28;60.86;97445.93;1514836;93;21080;-83
2022/03/02 00:52:25;;;;;;;10.58;7.58;;;;;;;-2.28;61.12;97443.38;1516501;93;21143;-83
2022/03/02 00:54:56;;;;;;;10.32;8.55;;;;;;;-2.31;60.96;97442.23;1516266;93;21582;-82
2022/03/02 00:57:36;;;;;;;10.18;7.33;;;;;;;-2.35;61.24;97433.12;1514434;95;21089;-82
2022/03/02 01:00:42;;;;;;;;;;;;;;;;;;;;;
2022/03/02 01:03:22;;;;;;;;;;;;;;;;;;;;;
2022/03/02 01:08:24;;;;;;;10.13;7.25;;;;;;;-2.49;61.70;97427.44;1508433;94;21939;-82
2022/03/02 01:10:57;;;;;;;10.18;8.18;;;;;;;-2.55;61.67;97425.20;1590527;88;21174;-83
2022/03/02 01:13:35;;;;;;;;;;;;;;;;;;;;;
2022/03/02 01:16:07;;;;;;;12.30;8.68;;;;;;;-2.58;61.75;97430.90;1631035;88;21176;-82
2022/03/02 01:18:49;;;;;;;11.45;7.45;;;;;;;-2.59;61.99;97422.45;1634668;86;21471;-83
2022/03/02 01:21:28;;;;;;;11.57;8.00;;;;;;;-2.60;62.15;97421.25;1631685;87;21142;-82
2022/03/02 01:24:07;;;;;;;10.55;7.95;;;;;;;-2.65;62.20;97415.09;1634762;86;21421;-82
2022/03/02 01:26:46;;;;;;;14.15;8.35;;;;;;;-2.69;61.99;97416.14;1613021;88;21565;-83
2022/03/02 01:29:50;;;;;;;;;;;;;;;;;;;;;
2022/03/02 01:32:32;;;;;;;8.80;7.50;;;;;;;-2.74;61.74;97415.56;1634228;86;21582;-82
2022/03/02 01:35:01;;;;;;;9.85;6.92;;;;;;;-2.76;61.74;97418.63;1633003;88;21083;-83
2022/03/02 01:37:30;;;;;;;13.58;7.83;;;;;;;-2.78;62.35;97412.31;1634363;88;21126;-83
2022/03/02 01:42:47;;;;;;;10.85;8.18;;;;;;;-2.84;62.32;97406.72;1595935;88;21428;-83
2022/03/02 01:45:26;;;;;;;10.48;7.65;;;;;;;-2.86;62.50;97401.70;1634302;88;21130;-83
2022/03/02 01:48:05;;;;;;;9.05;7.75;;;;;;;-2.88;62.70;97402.23;1634630;88;21082;-83
2022/03/02 01:50:49;;;;;;;10.58;8.03;;;;;;;-2.88;62.78;97405.23;1634226;88;21177;-83
2022/03/02 01:53:14;;;;;;;10.80;7.62;;;;;;;-2.90;62.74;97402.76;1632473;86;21038;-83
2022/03/02 01:55:42;;;;;;;11.18;7.53;;;;;;;-2.92;62.42;97400.74;1634729;88;21448;-82
2022/03/02 01:58:12;;;;;;;10.72;7.75;;;;;;;-2.94;62.63;97401.23;1587805;88;21164;-83
2022/03/02 02:00:41;;;;;;;11.40;8.00;;;;;;;-2.96;62.71;97397.13;1613501;88;21062;-83
2022/03/02 02:03:14;;;;;;;12.93;9.05;;;;;;;-2.97;62.73;97389.95;1634507;86;21067;-83
2022/03/02 02:06:00;;;;;;;9.95;7.80;;;;;;;-2.95;62.67;97398.77;1629086;86;21090;-83
2022/03/02 02:08:30;;;;;;;9.28;8.15;;;;;;;-2.95;62.60;97394.50;1634126;88;21430;-83
2022/03/02 02:11:04;;;;;;;11.57;8.15;;;;;;;-2.96;62.81;97395.41;1634791;86;21014;-83
2022/03/02 02:13:36;;;;;;;10.70;7.80;;;;;;;-2.96;62.99;97394.58;1589001;89;21035;-83
2022/03/02 02:16:05;;;;;;;9.53;7.80;;;;;;;-2.99;63.06;97394.28;1610055;89;21126;-83
2022/03/02 02:18:37;;;;;;;11.68;7.80;;;;;;;-2.98;62.79;97388.75;1607780;89;21143;-83
2022/03/02 02:21:12;;;;;;;10.82;7.67;;;;;;;-2.98;62.59;97392.56;1609745;89;21418;-83
2022/03/02 02:23:38;;;;;;;12.47;8.58;;;;;;;-2.98;62.73;97395.11;1610296;89;21043;-82
2022/03/02 02:26:05;;;;;;;11.18;8.03;;;;;;;-3.01;62.53;97392.27;1610236;89;21055;-82
2022/03/02 02:28:31;;;;;;;11.88;9.20;;;;;;;-3.03;62.72;97387.71;1610087;89;21051;-82
2022/03/02 02:30:58;;;;;;;9.53;7.85;;;;;;;-3.05;62.97;97387.78;1625621;86;21333;-83
2022/03/02 02:33:24;;;;;;;9.83;7.80;;;;;;;-3.06;63.14;97386.14;1635384;88;21420;-82
2022/03/02 02:35:50;;;;;;;10.50;7.65;;;;;;;-3.07;62.89;97387.48;1635085;88;21083;-82
2022/03/02 02:38:16;;;;;;;13.08;8.95;;;;;;;-3.07;62.74;97376.05;1635659;88;21019;-83
2022/03/02 02:40:42;;;;;;;11.73;8.88;;;;;;;-3.32;62.92;97339.52;1636203;88;20976;-82
2022/03/02 02:43:09;;;;;;;10.98;8.23;;;;;;;-3.08;63.29;97382.03;1635554;88;21076;-83
2022/03/02 02:45:35;;;;;;;12.43;9.15;;;;;;;-3.09;63.36;97377.84;1636359;88;21091;-83
2022/03/02 02:48:01;;;;;;;11.20;7.92;;;;;;;-3.12;63.40;97371.16;1636127;88;21457;-82
2022/03/02 02:50:30;;;;;;;11.85;9.10;;;;;;;-3.14;63.42;97375.95;1636204;88;21000;-82
2022/03/02 02:52:57;;;;;;;14.83;9.43;;;;;;;-3.14;63.42;97375.50;1636228;88;21043;-83
2022/03/02 02:55:27;;;;;;;11.90;8.53;;;;;;;-3.16;63.70;97372.21;1636153;88;21343;-82
2022/03/02 02:57:53;;;;;;;12.43;8.38;;;;;;;-3.16;63.56;97381.11;1636035;88;21449;-83
2022/03/02 03:00:21;;;;;;;11.85;8.63;;;;;;;-3.17;63.71;97373.11;1636010;88;21446;-83
2022/03/02 03:02:49;;;;;;;13.75;9.25;;;;;;;-3.16;63.66;97372.66;1636125;88;20999;-83
2022/03/02 03:05:18;;;;;;;10.28;8.55;;;;;;;-3.17;63.69;97365.48;1636155;88;21142;-83
2022/03/02 03:07:44;;;;;;;11.10;8.63;;;;;;;-3.18;63.39;97371.47;1636216;88;21058;-82
2022/03/02 03:10:11;;;;;;;12.95;10.20;;;;;;;-3.17;63.59;97368.02;1636339;88;21002;-82
2022/03/02 03:12:36;;;;;;;12.80;10.10;;;;;;;-3.17;63.65;97364.21;1636113;88;21050;-83
2022/03/02 03:15:04;;;;;;;12.82;9.30;;;;;;;-3.17;63.66;97362.94;1636218;88;21114;-83
2022/03/02 03:17:30;;;;;;;15.35;9.78;;;;;;;-3.18;63.63;97365.11;1636154;88;21015;-83
2022/03/02 03:19:56;;;;;;;13.55;9.55;;;;;;;-3.17;63.62;97366.75;1636343;88;21063;-83
2022/03/02 03:22:22;;;;;;;11.97;10.30;;;;;;;-3.35;63.41;97336.69;1636050;88;21011;-83
2022/03/02 03:24:48;;;;;;;15.45;10.43;;;;;;;-3.16;63.48;97363.77;1636032;88;21081;-82
2022/03/02 03:27:14;;;;;;;14.43;11.78;;;;;;;-3.15;63.67;97366.23;1635985;88;21015;-82
2022/03/02 03:29:39;;;;;;;14.80;9.58;;;;;;;-3.12;63.50;97366.08;1635896;88;21386;-82
2022/03/02 03:32:06;;;;;;;13.30;10.30;;;;;;;-3.08;63.33;97370.59;1636101;88;21034;-82
2022/03/02 03:34:32;;;;;;;13.40;10.18;;;;;;;-3.09;63.30;97365.95;1651935;85;21035;-83
2022/03/02 03:36:58;;;;;;;14.73;11.40;;;;;;;-3.05;63.31;97367.45;1659491;86;21046;-83
2022/03/02 03:39:24;;;;;;;13.80;9.83;;;;;;;-3.05;63.55;97364.08;1659234;86;21147;-83
2022/03/02 03:41:50;;;;;;;12.75;10.03;;;;;;;-3.08;63.57;97365.06;1659538;86;21471;-83
2022/03/02 03:44:16;;;;;;;12.73;10.32;;;;;;;-3.07;63.44;97369.24;1659456;86;21077;-82
2022/03/02 03:46:41;;;;;;;11.43;9.45;;;;;;;-3.06;63.57;97366.25;1659603;86;21108;-83
2022/03/02 03:49:07;;;;;;;12.63;8.98;;;;;;;-3.04;63.72;97363.19;1659292;86;21026;-83
2022/03/02 03:51:34;;;;;;;13.75;9.68;;;;;;;-3.04;63.51;97362.73;1659383;86;20987;-83
2022/03/02 03:54:00;;;;;;;12.82;10.20;;;;;;;-3.08;63.59;97358.70;1659304;86;21047;-83
2022/03/02 03:56:27;;;;;;;13.03;8.95;;;;;;;-3.09;63.48;97355.78;1637101;86;21026;-83
2022/03/02 03:58:54;;;;;;;11.90;8.88;;;;;;;-3.11;63.44;97365.63;1659435;86;21106;-83
2022/03/02 04:01:21;;;;;;;9.65;8.45;;;;;;;-3.10;63.51;97361.73;1659150;86;21004;-82
2022/03/02 04:03:47;;;;;;;10.50;8.00;;;;;;;-3.10;63.45;97359.20;1659461;86;21027;-82
2022/03/02 04:06:13;;;;;;;12.20;8.70;;;;;;;-3.11;63.42;97356.28;1659383;86;21160;-83
2022/03/02 04:08:39;;;;;;;10.63;8.65;;;;;;;-3.13;63.77;97353.44;1659578;86;21477;-83
2022/03/02 04:11:05;;;;;;;12.15;8.10;;;;;;;-3.16;63.64;97349.33;1636945;86;20964;-82
2022/03/02 04:13:30;;;;;;;11.08;8.13;;;;;;;-3.15;63.68;97348.88;1659384;86;20963;-82
2022/03/02 04:15:56;;;;;;;12.53;8.68;;;;;;;-3.16;63.36;97346.79;1659121;86;21066;-82
2022/03/02 04:18:22;;;;;;;11.43;7.97;;;;;;;-3.17;63.28;97347.69;1659375;86;21347;-83
2022/03/02 04:20:49;;;;;;;12.15;9.55;;;;;;;-3.18;63.48;97347.31;1658904;86;21115;-83
2022/03/02 04:23:15;;;;;;;12.25;8.88;;;;;;;-3.18;63.87;97346.05;1659424;86;21086;-83
2022/03/02 04:25:40;;;;;;;12.20;8.70;;;;;;;-3.18;63.66;97350.30;1636901;86;21042;-82
2022/03/02 04:28:06;;;;;;;12.03;9.20;;;;;;;-3.18;63.78;97351.58;1659268;86;21007;-83
2022/03/02 04:30:32;;;;;;;12.33;8.50;;;;;;;-3.16;63.97;97345.97;1662107;81;21535;-83
2022/03/02 04:32:58;;;;;;;12.10;8.60;;;;;;;-3.14;63.79;97342.90;1747041;82;21036;-82
2022/03/02 04:35:24;;;;;;;9.58;8.08;;;;;;;-3.10;63.60;97345.66;1751635;82;21052;-83
2022/03/02 04:37:50;;;;;;;11.00;8.18;;;;;;;-3.08;63.65;97340.91;1744798;82;21336;-83
2022/03/02 04:40:16;;;;;;;10.13;8.03;;;;;;;-3.05;63.66;97345.02;1745047;82;21033;-83
2022/03/02 04:42:42;;;;;;;10.78;7.97;;;;;;;-3.07;63.50;97342.55;1744645;82;20942;-82
2022/03/02 04:45:10;;;;;;;13.50;8.93;;;;;;;-3.09;63.30;97343.08;1744670;82;21005;-82
2022/03/02 04:47:36;;;;;;;11.45;8.35;;;;;;;-3.08;63.33;97338.81;1744798;82;21399;-83
2022/03/02 04:50:04;;;;;;;12.82;8.75;;;;;;;-3.09;63.19;97337.17;1744667;82;20973;-82
2022/03/02 04:52:30;;;;;;;10.45;7.85;;;;;;;-3.11;63.30;97338.48;1744723;82;21013;-83
2022/03/02 04:55:08;;;;;;;11.53;8.53;;;;;;;-3.09;63.19;97339.26;1744643;82;20993;-83
2022/03/02 04:57:41;;;;;;;10.65;8.55;;;;;;;-3.11;63.15;97334.67;1744616;82;20969;-82
2022/03/02 05:00:18;;;;;;;12.15;8.78;;;;;;;-3.11;63.37;97332.13;1744475;82;21013;-83
2022/03/02 05:02:43;;;;;;;10.75;7.95;;;;;;;-3.13;63.31;97329.29;1741049;82;21001;-83
2022/03/02 05:05:11;;;;;;;11.90;8.93;;;;;;;-3.13;63.22;97330.56;1744620;82;21431;-83
2022/03/02 05:07:38;;;;;;;11.25;8.40;;;;;;;-3.15;63.46;97332.36;1744657;82;21049;-82
2022/03/02 05:10:05;;;;;;;12.05;8.78;;;;;;;-3.20;63.70;97325.41;1744551;82;21380;-82
2022/03/02 05:12:31;;;;;;;13.95;8.53;;;;;;;-3.23;63.58;97325.12;1744630;82;21039;-82
2022/03/02 05:14:56;;;;;;;10.95;8.30;;;;;;;-3.24;63.83;97318.39;1744782;82;21076;-82
2022/03/02 05:17:23;;;;;;;12.58;8.75;;;;;;;-3.51;63.92;97276.06;1727346;82;21017;-82
2022/03/02 05:19:49;;;;;;;12.10;9.63;;;;;;;-3.26;64.01;97323.97;1744655;82;21287;-83
2022/03/02 05:22:15;;;;;;;12.78;8.75;;;;;;;-3.27;63.90;97322.33;1744602;82;21501;-82
2022/03/02 05:24:41;;;;;;;12.63;8.08;;;;;;;-3.29;63.61;97326.66;1744574;82;21017;-82
2022/03/02 05:27:07;;;;;;;11.03;8.15;;;;;;;-3.28;63.59;97324.94;1744767;82;21024;-83
2022/03/02 05:29:34;;;;;;;10.00;7.92;;;;;;;-3.29;63.43;97327.94;1744559;82;21498;-82
2022/03/02 05:32:00;;;;;;;10.82;8.00;;;;;;;-3.32;63.17;97325.55;1744552;82;20966;-82
2022/03/02 05:34:26;;;;;;;14.25;8.18;;;;;;;-3.33;63.48;97330.26;1744705;82;21002;-82
2022/03/02 05:36:52;;;;;;;10.18;8.10;;;;;;;-3.36;63.49;97326.15;1744568;82;20998;-82
2022/03/02 05:39:17;;;;;;;11.03;8.13;;;;;;;-3.35;63.46;97326.52;1744530;82;21009;-82
2022/03/02 05:41:43;;;;;;;10.60;7.92;;;;;;;-3.32;63.69;97325.09;1744405;82;21001;-83
2022/03/02 05:44:09;;;;;;;13.83;8.48;;;;;;;-3.30;63.61;97329.28;1744730;82;20981;-83
2022/03/02 05:46:35;;;;;;;12.68;9.48;;;;;;;-3.31;63.57;97323.38;1744643;82;21403;-83
2022/03/02 05:49:03;;;;;;;11.83;9.33;;;;;;;-3.30;63.75;97325.02;1744826;82;20961;-82
2022/03/02 05:51:30;;;;;;;12.18;8.73;;;;;;;-3.29;63.75;97318.22;1744582;82;21009;-82
2022/03/02 05:53:59;;;;;;;12.60;8.83;;;;;;;-3.30;63.83;97322.92;1744612;82;21040;-83
2022/03/02 05:56:25;;;;;;;11.35;8.53;;;;;;;-3.32;63.85;97319.19;1744617;82;21049;-82
2022/03/02 05:58:52;;;;;;;10.20;8.33;;;;;;;-3.31;63.82;97322.11;1744735;82;21411;-82
2022/03/02 06:01:19;;;;;;;10.50;8.43;;;;;;;-3.27;63.87;97327.41;1743549;81;21033;-82
2022/03/02 06:03:45;;;;;;;15.15;8.75;;;;;;;-3.24;63.85;97332.38;1743653;82;21045;-82
2022/03/02 06:06:11;;;;;;;11.95;8.63;;;;;;;-3.23;63.67;97341.64;1743743;82;20993;-83
2022/03/02 06:08:37;;;;;;;11.57;8.85;;;;;;;-3.18;63.63;97346.05;1744141;82;21404;-83
2022/03/02 06:11:03;;;;;;;12.40;8.30;;;;;;;-3.15;63.43;97343.80;1744668;82;20962;-82
2022/03/02 06:13:30;;;;;;;11.63;8.13;;;;;;;-3.12;63.60;97346.19;1744571;82;21045;-83
2022/03/02 06:15:57;;;;;;;11.95;8.10;;;;;;;-3.09;63.41;97349.88;1744687;82;21005;-82
2022/03/02 06:18:24;;;;;;;10.93;8.23;;;;;;;-3.06;63.61;97340.83;1744773;82;21013;-82
2022/03/02 06:20:52;;;;;;;10.55;7.92;;;;;;;-3.06;63.63;97342.92;1744682;82;21017;-83
2022/03/02 06:23:20;;;;;;;12.25;8.13;;;;;;;-3.02;63.49;97339.77;1744709;82;21009;-82
2022/03/02 06:25:46;;;;;;;11.10;9.10;;;;;;;-3.00;63.65;97341.78;1744071;82;21006;-82
2022/03/02 06:28:12;;;;;;;11.75;8.70;;;;;;;-2.98;63.58;97343.80;1744696;82;20985;-82
2022/03/02 06:30:38;;;;;;;11.43;8.65;;;;;;;-2.94;63.60;97345.29;1744048;82;20984;-82
2022/03/02 06:33:04;;;;;;;12.75;8.23;;;;;;;-2.95;63.52;97348.73;1744548;82;20997;-82
2022/03/02 06:35:30;;;;;;;12.05;8.83;;;;;;;-2.91;63.51;97349.43;1727563;82;21423;-82
2022/03/02 06:37:55;;;;;;;12.28;8.93;;;;;;;-2.88;63.36;97348.00;1754913;82;20973;-83
2022/03/02 06:40:21;;;;;;;12.90;8.38;;;;;;;-2.88;63.41;97342.91;1754969;82;21415;-82
2022/03/02 06:43:07;;;;;;;13.22;8.88;;;;;;;-2.88;63.44;97345.45;1755193;82;21044;-82
2022/03/02 06:45:55;;;;;;;11.18;8.43;;;;;;;-2.87;63.46;97344.11;1754718;82;21012;-82
2022/03/02 06:48:45;;;;;;;13.08;8.98;;;;;;;-2.87;63.27;97345.38;1755124;82;20965;-82
2022/03/02 06:51:12;;;;;;;9.63;7.50;;;;;;;-2.85;63.38;97343.58;1754846;82;20989;-82
2022/03/02 06:53:38;;;;;;;13.13;8.78;;;;;;;-2.84;63.50;97343.13;1752414;82;21411;-84
2022/03/02 06:56:06;;;;;;;13.00;8.35;;;;;;;-2.83;63.63;97335.87;1755086;82;20996;-82
2022/03/02 06:58:46;;;;;;;12.00;9.03;;;;;;;-2.82;63.62;97341.33;1754600;82;21103;-83
2022/03/02 07:01:13;;;;;;;13.85;8.78;;;;;;;-2.79;63.61;97336.08;1754779;82;21009;-83
2022/03/02 07:03:47;;;;;;;12.20;8.53;;;;;;;-2.79;63.59;97333.54;1755051;82;21052;-82
2022/03/02 07:06:13;;;;;;;14.43;9.35;;;;;;;-2.78;63.75;97333.46;1755037;82;22043;-83
2022/03/02 07:08:42;;;;;;;13.88;8.90;;;;;;;-2.76;63.82;97340.59;1752124;82;21129;-82
2022/03/02 07:11:08;;;;;;;15.98;9.13;;;;;;;-2.75;63.92;97337.15;1754749;82;21049;-82
2022/03/02 07:13:34;;;;;;;12.98;9.85;;;;;;;-2.72;63.92;97339.98;1755159;82;21061;-83
2022/03/02 07:16:00;;;;;;;13.43;9.20;;;;;;;-2.70;63.90;97338.19;1727068;82;21052;-83
2022/03/02 07:18:25;;;;;;;11.22;8.30;;;;;;;-2.64;63.81;97339.13;1727440;82;21037;-83
2022/03/02 07:20:51;;;;;;;15.85;9.98;;;;;;;-2.62;63.87;97337.78;1755178;82;21431;-83
2022/03/02 07:23:18;;;;;;;14.75;9.63;;;;;;;-2.57;64.14;97334.13;1755198;82;21105;-82
2022/03/02 07:25:45;;;;;;;14.63;10.13;;;;;;;-2.46;64.29;97339.47;1727215;82;21046;-82
2022/03/02 07:28:13;;;;;;;19.52;12.05;;;;;;;-2.37;64.17;97332.28;1755142;82;21069;-83
2022/03/02 07:30:39;;;;;;;19.75;13.43;;;;;;;-2.33;63.69;97329.94;1755017;82;21462;-82
2022/03/02 07:33:05;;;;;;;21.52;13.78;;;;;;;-2.29;63.52;97330.15;1755285;82;21107;-83
2022/03/02 07:35:33;;;;;;;22.93;14.50;;;;;;;-2.26;63.50;97328.74;1748824;82;20982;-83
2022/03/02 07:37:59;;;;;;;21.97;16.65;;;;;;;-2.22;63.46;97331.04;1746417;82;21124;-83
2022/03/02 07:40:26;;;;;;;25.32;15.48;;;;;;;-2.20;63.27;97336.05;1746225;82;21384;-82
2022/03/02 07:42:51;;;;;;;45.88;26.20;;;;;;;-2.13;63.46;97328.00;1746229;82;20989;-83
2022/03/02 07:45:17;;;;;;;53.63;29.90;;;;;;;-2.04;63.11;97330.98;1746345;82;21104;-82
2022/03/02 07:47:44;;;;;;;42.98;26.48;;;;;;;-2.02;63.22;97326.63;1746281;82;21417;-83
2022/03/02 07:50:13;;;;;;;40.78;24.77;;;;;;;-2.01;63.36;97320.63;1746442;81;21037;-83
2022/03/02 07:52:39;;;;;;;40.58;24.47;;;;;;;-1.99;63.43;97315.81;1746434;82;21005;-83
2022/03/02 07:55:09;;;;;;;43.40;26.68;;;;;;;-1.86;63.63;97315.53;1746310;82;20966;-83
2022/03/02 07:57:35;;;;;;;46.77;27.82;;;;;;;-1.74;63.07;97319.16;1746344;82;21005;-83
2022/03/02 08:00:03;;;;;;;37.45;23.47;;;;;;;-1.65;62.70;97309.72;1746193;82;21426;-83
2022/03/02 08:02:30;;;;;;;41.60;26.12;;;;;;;-1.54;62.45;97311.69;1746053;82;21073;-83
2022/03/02 08:04:56;;;;;;;37.33;24.35;;;;;;;-1.46;62.51;97313.38;1746167;82;21060;-83
2022/03/02 08:07:22;;;;;;;33.23;21.87;;;;;;;-1.60;62.13;97277.63;1746266;81;21017;-83
2022/03/02 08:09:50;;;;;;;33.33;22.93;;;;;;;-1.30;62.20;97305.24;1746324;82;21006;-82
2022/03/02 08:12:22;;;;;;;32.05;21.00;;;;;;;-1.23;62.35;97305.70;1746367;82;21001;-83
2022/03/02 08:14:48;;;;;;;33.88;20.68;;;;;;;-1.17;62.10;97302.80;1746535;82;20970;-83
2022/03/02 08:17:14;;;;;;;47.60;27.62;;;;;;;-1.10;62.34;97299.47;1746249;81;21013;-83
2022/03/02 08:19:40;;;;;;;25.55;17.15;;;;;;;-1.03;62.37;97289.27;1746255;82;21051;-83
2022/03/02 08:22:12;;;;;;;25.35;16.52;;;;;;;-0.91;63.70;97288.56;1746390;82;21451;-83
2022/03/02 08:24:42;;;;;;;30.75;16.57;;;;;;;-0.80;63.75;97285.41;1746562;82;21467;-83
2022/03/02 08:27:10;;;;;;;24.00;14.87;;;;;;;-0.69;62.02;97294.51;1746430;82;20989;-82
2022/03/02 08:29:36;;;;;;;18.90;13.18;;;;;;;-0.58;60.59;97293.43;1746127;82;21072;-83
2022/03/02 08:32:03;;;;;;;19.37;12.90;;;;;;;-0.49;60.21;97280.56;1727470;82;21053;-82
2022/03/02 08:34:30;;;;;;;16.50;11.28;;;;;;;-0.40;60.17;97285.13;1727443;82;21052;-83
2022/03/02 08:36:55;;;;;;;15.72;11.33;;;;;;;-0.30;59.53;97279.84;1744849;82;21422;-82
2022/03/02 08:39:21;;;;;;;16.70;11.10;;;;;;;-0.22;58.57;97290.41;1744594;82;21001;-82
2022/03/02 08:41:48;;;;;;;18.35;11.45;;;;;;;-0.14;59.59;97290.77;1744761;82;21035;-83
2022/03/02 08:44:14;;;;;;;16.77;10.10;;;;;;;-0.03;59.28;97288.36;1744894;82;21466;-83
2022/03/02 08:46:41;;;;;;;15.30;10.90;;;;;;;0.07;58.93;97286.08;1744734;82;20957;-83
2022/03/02 08:49:07;;;;;;;14.23;12.13;;;;;;;0.16;58.67;97276.57;1744676;82;21400;-82
2022/03/02 08:51:34;;;;;;;16.45;11.78;;;;;;;0.24;58.81;97276.08;1744766;82;21008;-83
2022/03/02 08:54:02;;;;;;;14.28;10.98;;;;;;;0.30;58.60;97271.84;1744708;82;21080;-82
2022/03/02 08:56:28;;;;;;;14.98;10.08;;;;;;;0.35;58.28;97277.52;1744906;82;21309;-83
2022/03/02 08:58:54;;;;;;;15.88;11.55;;;;;;;0.40;58.15;97272.92;1744736;82;21021;-83
2022/03/02 09:01:20;;;;;;;15.32;9.78;;;;;;;0.48;58.01;97269.41;1744559;82;21028;-83
2022/03/02 09:03:48;;;;;;;15.00;10.48;;;;;;;0.55;58.13;97266.83;1744589;82;21025;-83
2022/03/02 09:06:19;;;;;;;12.45;9.33;;;;;;;0.62;57.50;97264.69;1744920;82;20992;-83
2022/03/02 09:08:45;;;;;;;17.50;11.68;;;;;;;0.67;56.88;97270.81;1744613;82;21459;-83
2022/03/02 09:11:11;;;;;;;17.05;11.12;;;;;;;0.73;57.78;97262.27;1744715;82;21041;-83
2022/03/02 09:13:37;;;;;;;16.10;11.20;;;;;;;0.82;57.83;97260.41;1744629;82;21065;-82
2022/03/02 09:16:05;;;;;;;16.80;11.95;;;;;;;0.91;57.05;97256.41;1744743;82;20953;-82
2022/03/02 09:18:31;;;;;;;15.48;10.98;;;;;;;0.95;57.64;97251.91;1744206;82;20982;-83
2022/03/02 09:21:03;;;;;;;16.35;11.40;;;;;;;1.00;57.18;97248.14;1727631;82;20973;-83
2022/03/02 09:23:32;;;;;;;;;;;;;;;0.96;54.83;97227.48;1747456;82;21050;-83
2022/03/02 09:26:05;;;;;;;15.65;9.33;;;;;;;0.96;56.37;97240.28;1744583;82;20126;-83
2022/03/02 09:28:34;;;;;;;12.75;8.95;;;;;;;1.02;57.71;97243.73;1742768;82;21037;-83
2022/03/02 09:31:04;;;;;;;13.08;9.70;;;;;;;1.06;56.17;97235.39;1743470;81;21080;-83
2022/03/02 09:33:30;;;;;;;11.05;8.10;;;;;;;1.04;55.99;97230.84;1743286;82;21060;-83
2022/03/02 09:35:56;;;;;;;15.18;8.78;;;;;;;1.08;56.26;97235.64;1755578;81;20992;-83
2022/03/02 09:38:23;;;;;;;16.25;11.48;;;;;;;1.15;56.48;97236.89;1775170;81;20980;-83
2022/03/02 09:40:50;;;;;;;14.35;11.43;;;;;;;1.23;56.13;97234.26;1775348;81;21902;-82
2022/03/02 09:43:19;;;;;;;18.32;11.55;;;;;;;1.25;55.71;97238.35;1775703;81;21027;-82
2022/03/02 09:45:45;;;;;;;15.93;11.20;;;;;;;1.28;55.57;97241.16;1775849;81;21004;-83
2022/03/02 09:48:15;;;;;;;21.25;13.30;;;;;;;1.29;55.53;97234.66;1749343;81;21027;-83
2022/03/02 09:50:42;;;;;;;20.43;13.60;;;;;;;1.28;54.80;97224.52;1776325;81;21012;-83
2022/03/02 09:53:13;;;;;;;20.05;13.32;;;;;;;1.22;55.33;97223.20;1775921;81;21530;-83
2022/03/02 09:55:42;;;;;;;19.20;12.18;;;;;;;1.30;55.93;97214.98;1775824;81;21028;-83
2022/03/02 09:58:10;;;;;;;21.17;14.15;;;;;;;1.38;54.73;97214.02;1775814;81;20964;-83
2022/03/02 10:00:35;;;;;;;19.42;14.78;;;;;;;1.37;54.54;97217.51;1775474;81;21047;-83
2022/03/02 10:03:01;;;;;;;20.00;12.60;;;;;;;1.34;55.07;97206.20;1775724;81;21012;-83
2022/03/02 10:05:30;;;;;;;22.48;14.55;;;;;;;1.43;54.81;97194.84;1775949;81;21023;-83
2022/03/02 10:08:07;;;;;;;18.17;11.15;;;;;;;1.52;55.64;97204.12;1749212;81;21047;-83
2022/03/02 10:10:39;;;;;;;18.37;12.30;;;;;;;1.59;54.76;97195.08;1775515;80;21000;-83
2022/03/02 10:13:08;;;;;;;17.07;11.40;;;;;;;1.67;55.59;97206.91;1775782;81;20973;-83
2022/03/02 10:15:34;;;;;;;18.12;11.57;;;;;;;1.72;54.80;97194.58;1775399;81;21434;-83
2022/03/02 10:18:02;;;;;;;18.35;11.78;;;;;;;1.79;54.99;97194.53;1775872;81;21030;-82
2022/03/02 10:20:31;;;;;;;14.83;9.75;;;;;;;1.84;54.79;97192.92;1775907;81;21000;-82
2022/03/02 10:23:37;;;;;;;14.73;9.85;;;;;;;1.84;51.74;97183.95;1775113;81;21031;-82
2022/03/02 10:26:11;;;;;;;15.70;10.80;;;;;;;1.83;53.82;97192.10;1775795;81;21015;-83
2022/03/02 10:29:15;;;;;;;17.48;11.63;;;;;;;1.91;54.44;97190.27;1775723;81;20995;-83
2022/03/02 10:32:05;;;;;;;10.60;7.65;;;;;;;1.96;53.90;97192.88;1775720;81;21431;-82
2022/03/02 10:34:38;;;;;;;18.87;12.07;;;;;;;2.01;52.88;97182.30;1774904;81;21324;-82
2022/03/02 10:37:33;;;;;;;14.68;9.90;;;;;;;2.07;54.34;97173.69;1757740;79;21073;-83
2022/03/02 10:40:12;;;;;;;17.95;12.13;;;;;;;2.17;54.33;97173.04;1758452;81;21006;-83
2022/03/02 10:42:48;;;;;;;18.27;12.28;;;;;;;2.25;53.83;97168.16;1756269;81;21370;-83
2022/03/02 10:45:26;;;;;;;18.55;12.68;;;;;;;2.20;52.42;97172.34;1753737;82;21003;-83
2022/03/02 10:48:22;;;;;;;18.50;13.28;;;;;;;2.21;53.58;97171.42;1756362;82;21006;-82
2022/03/02 10:50:52;;;;;;;20.70;12.70;;;;;;;2.28;53.53;97172.63;1759102;81;21044;-83
2022/03/02 10:53:18;;;;;;;17.27;12.37;;;;;;;2.30;52.36;97155.84;1737672;81;21394;-83
2022/03/02 10:55:48;;;;;;;14.33;11.00;;;;;;;2.32;53.74;97157.83;1735267;82;21050;-82
2022/03/02 10:58:17;;;;;;;17.12;11.97;;;;;;;2.36;52.66;97152.36;1758927;81;21071;-83
2022/03/02 11:00:43;;;;;;;21.68;13.32;;;;;;;2.38;53.15;97141.98;1758134;80;20995;-82
2022/03/02 11:03:09;;;;;;;19.17;13.38;;;;;;;2.45;53.34;97143.19;1756559;81;21393;-82
2022/03/02 11:05:35;;;;;;;19.45;13.53;;;;;;;2.53;53.07;97140.05;1756254;82;21109;-82
2022/03/02 11:08:02;;;;;;;20.45;13.35;;;;;;;2.54;52.06;97128.84;1758978;81;21026;-83
2022/03/02 11:10:33;;;;;;;19.35;14.75;;;;;;;2.52;52.51;97131.53;1756214;80;21030;-83
2022/03/02 11:12:57;;;;;;;18.17;11.50;;;;;;;2.60;52.88;97133.52;1758813;81;21006;-82
2022/03/02 11:15:23;;;;;;;18.50;11.83;;;;;;;2.61;51.07;97126.20;1759024;81;21026;-83
2022/03/02 11:17:56;;;;;;;20.62;14.90;;;;;;;2.55;51.52;97118.94;1758983;81;21372;-83
2022/03/02 11:20:24;;;;;;;20.97;13.53;;;;;;;2.65;52.76;97119.43;1758130;80;20994;-83
2022/03/02 11:22:59;;;;;;;17.07;12.53;;;;;;;2.68;51.01;97105.08;1756509;81;20975;-83
2022/03/02 11:25:51;;;;;;;21.17;15.38;;;;;;;2.63;51.24;97097.39;1758860;81;21081;-83
2022/03/02 11:28:19;;;;;;;21.40;14.05;;;;;;;2.67;52.30;97101.35;1758578;81;20998;-83
2022/03/02 11:30:52;;;;;;;19.45;14.18;;;;;;;2.71;50.95;97097.61;1756339;82;20994;-83
2022/03/02 11:33:25;;;;;;;22.52;16.27;;;;;;;2.79;51.49;97099.63;1756397;82;21369;-83
2022/03/02 11:35:59;;;;;;;20.17;13.72;;;;;;;2.82;52.11;97088.65;1766258;80;21039;-83
2022/03/02 11:38:24;;;;;;;16.52;11.75;;;;;;;2.86;50.46;97086.19;1779918;80;20996;-83
2022/03/02 11:40:51;;;;;;;22.77;15.75;;;;;;;2.88;50.85;97086.89;1735562;80;21015;-83
2022/03/02 11:43:26;;;;;;;21.97;14.83;;;;;;;2.90;51.36;97079.88;1786258;80;21417;-83
2022/03/02 11:45:58;;;;;;;21.33;13.80;;;;;;;2.98;51.92;97076.75;1780235;80;21040;-83
2022/03/02 11:48:20;;;;;;;18.25;12.45;;;;;;;3.07;52.18;97067.51;1778029;80;21059;-83
2022/03/02 11:51:08;;;;;;;20.15;12.85;;;;;;;3.12;51.28;97063.67;1785928;80;21900;-82
2022/03/02 11:53:48;;;;;;;17.10;11.35;;;;;;;3.18;51.64;97064.94;1780021;80;21016;-83
2022/03/02 11:56:17;;;;;;;18.23;11.90;;;;;;;3.23;50.08;97058.49;1760767;80;20979;-83
2022/03/02 11:59:05;;;;;;;19.17;12.37;;;;;;;3.27;51.62;97050.11;1780246;80;21039;-82
2022/03/02 12:01:51;;;;;;;15.45;11.18;;;;;;;3.27;50.48;97044.97;1780266;80;21445;-83
2022/03/02 12:04:17;;;;;;;17.50;12.00;;;;;;;3.30;50.37;97045.54;1780007;80;21066;-83